sensor_id;sensor_type;location;lat;lon;timestamp;temperature;humidity
63013;DHT22;62113;45.624;11.700;2024-03-17T00:02:01;16.70;63.80
63013;DHT22;62113;45.624;11.700;2024-03-17T00:04:27;16.70;63.80
63013;DHT22;62113;45.624;11.700;2024-03-17T00:06:53;16.70;63.80
63013;DHT22;62113;45.624;11.700;2024-03-17T00:09:18;16.70;63.90
63013;DHT22;62113;45.624;11.700;2024-03-17T00:11:44;16.70;63.90
63013;DHT22;62113;45.624;11.700;2024-03-17T00:14:10;16.70;63.80
63013;DHT22;62113;45.624;11.700;2024-03-17T00:16:37;16.60;63.90
63013;DHT22;62113;45.624;11.700;2024-03-17T00:19:03;16.60;63.90
63013;DHT22;62113;45.624;11.700;2024-03-17T00:21:28;16.60;63.90
63013;DHT22;62113;45.624;11.700;2024-03-17T00:23:54;16.60;63.90
63013;DHT22;62113;45.624;11.700;2024-03-17T00:26:20;16.50;63.80
63013;DHT22;62113;45.624;11.700;2024-03-17T00:28:46;16.60;63.80
63013;DHT22;62113;45.624;11.700;2024-03-17T00:31:14;16.50;63.70
63013;DHT22;62113;45.624;11.700;2024-03-17T00:33:40;16.50;63.70
63013;DHT22;62113;45.624;11.700;2024-03-17T00:36:06;16.40;63.60
63013;DHT22;62113;45.624;11.700;2024-03-17T00:38:32;16.40;63.60
63013;DHT22;62113;45.624;11.700;2024-03-17T00:40:58;16.40;63.60
63013;DHT22;62113;45.624;11.700;2024-03-17T00:43:24;16.30;63.50
63013;DHT22;62113;45.624;11.700;2024-03-17T00:45:52;16.20;63.50
63013;DHT22;62113;45.624;11.700;2024-03-17T00:48:18;16.20;63.50
63013;DHT22;62113;45.624;11.700;2024-03-17T00:50:44;16.20;63.40
63013;DHT22;62113;45.624;11.700;2024-03-17T00:53:13;16.20;63.40
63013;DHT22;62113;45.624;11.700;2024-03-17T00:55:39;16.10;63.40
63013;DHT22;62113;45.624;11.700;2024-03-17T00:58:05;16.10;63.50
63013;DHT22;62113;45.624;11.700;2024-03-17T01:00:31;16.00;63.50
63013;DHT22;62113;45.624;11.700;2024-03-17T01:02:58;16.00;63.60
63013;DHT22;62113;45.624;11.700;2024-03-17T01:05:24;16.00;63.60
63013;DHT22;62113;45.624;11.700;2024-03-17T01:07:49;16.00;63.70
63013;DHT22;62113;45.624;11.700;2024-03-17T01:10:15;16.00;63.70
63013;DHT22;62113;45.624;11.700;2024-03-17T01:12:41;15.90;63.80
63013;DHT22;62113;45.624;11.700;2024-03-17T01:15:08;15.90;63.90
63013;DHT22;62113;45.624;11.700;2024-03-17T01:17:34;15.90;63.90
63013;DHT22;62113;45.624;11.700;2024-03-17T01:19:59;15.90;63.90
63013;DHT22;62113;45.624;11.700;2024-03-17T01:22:25;15.90;63.90
63013;DHT22;62113;45.624;11.700;2024-03-17T01:24:50;15.90;64.00
63013;DHT22;62113;45.624;11.700;2024-03-17T01:27:16;15.80;64.00
63013;DHT22;62113;45.624;11.700;2024-03-17T01:29:42;15.80;64.00
63013;DHT22;62113;45.624;11.700;2024-03-17T01:32:09;15.80;64.10
63013;DHT22;62113;45.624;11.700;2024-03-17T01:34:36;15.80;64.10
63013;DHT22;62113;45.624;11.700;2024-03-17T01:37:02;15.80;64.10
63013;DHT22;62113;45.624;11.700;2024-03-17T01:39:28;15.80;64.10
63013;DHT22;62113;45.624;11.700;2024-03-17T01:41:53;15.80;64.20
63013;DHT22;62113;45.624;11.700;2024-03-17T01:44:26;15.80;64.10
63013;DHT22;62113;45.624;11.700;2024-03-17T01:46:53;15.80;64.20
63013;DHT22;62113;45.624;11.700;2024-03-17T01:49:20;15.80;64.10
63013;DHT22;62113;45.624;11.700;2024-03-17T01:51:47;15.80;64.10
63013;DHT22;62113;45.624;11.700;2024-03-17T01:54:13;15.80;64.00
63013;DHT22;62113;45.624;11.700;2024-03-17T01:56:39;15.70;63.90
63013;DHT22;62113;45.624;11.700;2024-03-17T01:59:07;15.70;63.90
63013;DHT22;62113;45.624;11.700;2024-03-17T02:01:33;15.80;63.80
63013;DHT22;62113;45.624;11.700;2024-03-17T02:03:59;15.70;63.50
63013;DHT22;62113;45.624;11.700;2024-03-17T02:06:25;15.70;63.50
63013;DHT22;62113;45.624;11.700;2024-03-17T02:08:53;15.60;63.60
63013;DHT22;62113;45.624;11.700;2024-03-17T02:11:32;15.60;63.70
63013;DHT22;62113;45.624;11.700;2024-03-17T02:13:59;15.50;63.80
63013;DHT22;62113;45.624;11.700;2024-03-17T02:16:25;15.50;63.80
63013;DHT22;62113;45.624;11.700;2024-03-17T02:18:54;15.50;63.70
63013;DHT22;62113;45.624;11.700;2024-03-17T02:21:21;15.40;63.60
63013;DHT22;62113;45.624;11.700;2024-03-17T02:23:48;15.40;63.70
63013;DHT22;62113;45.624;11.700;2024-03-17T02:26:14;15.40;63.80
63013;DHT22;62113;45.624;11.700;2024-03-17T02:28:41;15.40;63.80
63013;DHT22;62113;45.624;11.700;2024-03-17T02:31:08;15.40;63.90
63013;DHT22;62113;45.624;11.700;2024-03-17T02:33:34;15.40;63.90
63013;DHT22;62113;45.624;11.700;2024-03-17T02:35:59;15.40;63.80
63013;DHT22;62113;45.624;11.700;2024-03-17T02:38:25;15.50;63.80
63013;DHT22;62113;45.624;11.700;2024-03-17T02:41:09;15.40;63.70
63013;DHT22;62113;45.624;11.700;2024-03-17T02:43:35;15.40;63.70
63013;DHT22;62113;45.624;11.700;2024-03-17T02:46:02;15.40;63.60
63013;DHT22;62113;45.624;11.700;2024-03-17T02:48:30;15.40;63.60
63013;DHT22;62113;45.624;11.700;2024-03-17T02:50:56;15.30;63.60
63013;DHT22;62113;45.624;11.700;2024-03-17T02:53:22;15.20;63.50
63013;DHT22;62113;45.624;11.700;2024-03-17T02:55:47;15.30;63.50
63013;DHT22;62113;45.624;11.700;2024-03-17T02:58:13;15.20;63.60
63013;DHT22;62113;45.624;11.700;2024-03-17T03:00:38;15.20;63.70
63013;DHT22;62113;45.624;11.700;2024-03-17T03:03:05;15.20;63.80
63013;DHT22;62113;45.624;11.700;2024-03-17T03:05:31;15.20;63.70
63013;DHT22;62113;45.624;11.700;2024-03-17T03:07:57;15.10;63.80
63013;DHT22;62113;45.624;11.700;2024-03-17T03:10:23;15.10;63.90
63013;DHT22;62113;45.624;11.700;2024-03-17T03:12:49;15.10;63.90
63013;DHT22;62113;45.624;11.700;2024-03-17T03:15:15;15.00;63.90
63013;DHT22;62113;45.624;11.700;2024-03-17T03:17:40;15.00;64.00
63013;DHT22;62113;45.624;11.700;2024-03-17T03:20:06;15.10;64.00
63013;DHT22;62113;45.624;11.700;2024-03-17T03:22:32;15.00;63.90
63013;DHT22;62113;45.624;11.700;2024-03-17T03:24:57;15.00;63.90
63013;DHT22;62113;45.624;11.700;2024-03-17T03:27:23;15.00;63.90
63013;DHT22;62113;45.624;11.700;2024-03-17T03:29:50;15.00;64.00
63013;DHT22;62113;45.624;11.700;2024-03-17T03:32:15;15.00;64.00
63013;DHT22;62113;45.624;11.700;2024-03-17T03:34:43;15.00;63.90
63013;DHT22;62113;45.624;11.700;2024-03-17T03:37:08;15.00;63.90
63013;DHT22;62113;45.624;11.700;2024-03-17T03:39:36;15.10;63.90
63013;DHT22;62113;45.624;11.700;2024-03-17T03:42:02;15.00;63.90
63013;DHT22;62113;45.624;11.700;2024-03-17T03:44:27;15.00;63.90
63013;DHT22;62113;45.624;11.700;2024-03-17T03:46:54;15.10;63.80
63013;DHT22;62113;45.624;11.700;2024-03-17T03:49:24;15.00;63.80
63013;DHT22;62113;45.624;11.700;2024-03-17T03:51:50;15.00;63.80
63013;DHT22;62113;45.624;11.700;2024-03-17T03:54:16;15.00;63.70
63013;DHT22;62113;45.624;11.700;2024-03-17T03:56:41;15.00;63.70
63013;DHT22;62113;45.624;11.700;2024-03-17T03:59:07;14.90;63.80
63013;DHT22;62113;45.624;11.700;2024-03-17T04:01:33;14.90;63.80
63013;DHT22;62113;45.624;11.700;2024-03-17T04:03:58;14.90;63.70
63013;DHT22;62113;45.624;11.700;2024-03-17T04:06:24;14.90;63.70
63013;DHT22;62113;45.624;11.700;2024-03-17T04:08:49;14.90;63.60
63013;DHT22;62113;45.624;11.700;2024-03-17T04:11:15;14.80;63.60
63013;DHT22;62113;45.624;11.700;2024-03-17T04:13:41;14.80;63.60
63013;DHT22;62113;45.624;11.700;2024-03-17T04:16:07;14.80;63.60
63013;DHT22;62113;45.624;11.700;2024-03-17T04:18:33;14.80;63.60
63013;DHT22;62113;45.624;11.700;2024-03-17T04:21:05;14.80;63.60
63013;DHT22;62113;45.624;11.700;2024-03-17T04:23:32;14.80;63.60
63013;DHT22;62113;45.624;11.700;2024-03-17T04:26:00;14.80;63.50
63013;DHT22;62113;45.624;11.700;2024-03-17T04:28:26;14.70;63.50
63013;DHT22;62113;45.624;11.700;2024-03-17T04:30:52;14.70;63.50
63013;DHT22;62113;45.624;11.700;2024-03-17T04:33:17;14.70;63.50
63013;DHT22;62113;45.624;11.700;2024-03-17T04:35:43;14.70;63.50
63013;DHT22;62113;45.624;11.700;2024-03-17T04:38:09;14.70;63.50
63013;DHT22;62113;45.624;11.700;2024-03-17T04:40:41;14.70;63.50
63013;DHT22;62113;45.624;11.700;2024-03-17T04:43:08;14.70;63.50
63013;DHT22;62113;45.624;11.700;2024-03-17T04:45:34;14.70;63.50
63013;DHT22;62113;45.624;11.700;2024-03-17T04:47:59;14.70;63.40
63013;DHT22;62113;45.624;11.700;2024-03-17T04:50:25;14.70;63.30
63013;DHT22;62113;45.624;11.700;2024-03-17T04:52:52;14.70;63.40
63013;DHT22;62113;45.624;11.700;2024-03-17T04:55:17;14.60;63.30
63013;DHT22;62113;45.624;11.700;2024-03-17T04:57:44;14.60;63.40
63013;DHT22;62113;45.624;11.700;2024-03-17T05:00:10;14.60;63.40
63013;DHT22;62113;45.624;11.700;2024-03-17T05:02:38;14.60;63.40
63013;DHT22;62113;45.624;11.700;2024-03-17T05:05:04;14.50;63.50
63013;DHT22;62113;45.624;11.700;2024-03-17T05:07:31;14.50;63.50
63013;DHT22;62113;45.624;11.700;2024-03-17T05:09:57;14.50;63.40
63013;DHT22;62113;45.624;11.700;2024-03-17T05:12:22;14.50;63.40
63013;DHT22;62113;45.624;11.700;2024-03-17T05:14:48;14.50;63.30
63013;DHT22;62113;45.624;11.700;2024-03-17T05:17:14;14.50;63.20
63013;DHT22;62113;45.624;11.700;2024-03-17T05:19:40;14.50;63.10
63013;DHT22;62113;45.624;11.700;2024-03-17T05:22:06;14.40;63.10
63013;DHT22;62113;45.624;11.700;2024-03-17T05:24:31;14.50;63.10
63013;DHT22;62113;45.624;11.700;2024-03-17T05:26:57;14.40;63.10
63013;DHT22;62113;45.624;11.700;2024-03-17T05:29:22;14.40;63.10
63013;DHT22;62113;45.624;11.700;2024-03-17T05:31:49;14.40;63.00
63013;DHT22;62113;45.624;11.700;2024-03-17T05:34:15;14.40;63.10
63013;DHT22;62113;45.624;11.700;2024-03-17T05:36:40;14.30;63.20
63013;DHT22;62113;45.624;11.700;2024-03-17T05:39:06;14.30;63.30
63013;DHT22;62113;45.624;11.700;2024-03-17T05:41:31;14.30;63.30
63013;DHT22;62113;45.624;11.700;2024-03-17T05:43:57;14.30;63.40
63013;DHT22;62113;45.624;11.700;2024-03-17T05:46:25;14.30;63.40
63013;DHT22;62113;45.624;11.700;2024-03-17T05:48:54;14.30;63.50
63013;DHT22;62113;45.624;11.700;2024-03-17T05:51:19;14.40;63.50
63013;DHT22;62113;45.624;11.700;2024-03-17T05:53:45;14.40;63.40
63013;DHT22;62113;45.624;11.700;2024-03-17T05:56:11;14.50;63.40
63013;DHT22;62113;45.624;11.700;2024-03-17T05:58:38;14.50;63.30
63013;DHT22;62113;45.624;11.700;2024-03-17T06:01:05;14.60;63.30
63013;DHT22;62113;45.624;11.700;2024-03-17T06:03:32;14.70;63.30
63013;DHT22;62113;45.624;11.700;2024-03-17T06:06:01;14.80;63.30
63013;DHT22;62113;45.624;11.700;2024-03-17T06:08:27;14.90;63.30
63013;DHT22;62113;45.624;11.700;2024-03-17T06:10:52;15.20;63.10
63013;DHT22;62113;45.624;11.700;2024-03-17T06:13:18;15.30;62.80
63013;DHT22;62113;45.624;11.700;2024-03-17T06:15:44;15.40;62.50
63013;DHT22;62113;45.624;11.700;2024-03-17T06:18:13;15.50;62.30
63013;DHT22;62113;45.624;11.700;2024-03-17T06:20:44;15.60;62.20
63013;DHT22;62113;45.624;11.700;2024-03-17T06:23:13;15.70;62.00
63013;DHT22;62113;45.624;11.700;2024-03-17T06:25:46;15.70;61.80
63013;DHT22;62113;45.624;11.700;2024-03-17T06:28:14;15.80;61.60
63013;DHT22;62113;45.624;11.700;2024-03-17T06:30:41;15.80;61.60
63013;DHT22;62113;45.624;11.700;2024-03-17T06:33:08;15.80;61.60
63013;DHT22;62113;45.624;11.700;2024-03-17T06:35:36;15.90;61.50
63013;DHT22;62113;45.624;11.700;2024-03-17T06:38:02;16.00;61.50
63013;DHT22;62113;45.624;11.700;2024-03-17T06:40:27;16.10;61.60
63013;DHT22;62113;45.624;11.700;2024-03-17T06:42:53;16.10;61.50
63013;DHT22;62113;45.624;11.700;2024-03-17T06:45:19;16.30;61.70
63013;DHT22;62113;45.624;11.700;2024-03-17T06:47:46;16.50;61.30
63013;DHT22;62113;45.624;11.700;2024-03-17T06:50:12;16.60;61.00
63013;DHT22;62113;45.624;11.700;2024-03-17T06:52:37;16.70;60.70
63013;DHT22;62113;45.624;11.700;2024-03-17T06:55:04;16.90;60.80
63013;DHT22;62113;45.624;11.700;2024-03-17T06:57:30;17.00;60.60
63013;DHT22;62113;45.624;11.700;2024-03-17T06:59:55;17.00;60.30
63013;DHT22;62113;45.624;11.700;2024-03-17T07:02:21;16.90;60.10
63013;DHT22;62113;45.624;11.700;2024-03-17T07:04:47;16.80;60.20
63013;DHT22;62113;45.624;11.700;2024-03-17T07:07:13;16.70;60.40
63013;DHT22;62113;45.624;11.700;2024-03-17T07:09:40;16.70;60.50
63013;DHT22;62113;45.624;11.700;2024-03-17T07:12:10;16.70;60.80
63013;DHT22;62113;45.624;11.700;2024-03-17T07:14:36;16.60;61.00
63013;DHT22;62113;45.624;11.700;2024-03-17T07:17:02;16.50;61.10
63013;DHT22;62113;45.624;11.700;2024-03-17T07:19:28;16.50;61.30
63013;DHT22;62113;45.624;11.700;2024-03-17T07:21:54;16.40;61.20
63013;DHT22;62113;45.624;11.700;2024-03-17T07:24:20;16.10;62.30
63013;DHT22;62113;45.624;11.700;2024-03-17T07:26:48;15.80;63.30
63013;DHT22;62113;45.624;11.700;2024-03-17T07:29:15;15.60;64.10
63013;DHT22;62113;45.624;11.700;2024-03-17T07:31:40;15.30;66.10
63013;DHT22;62113;45.624;11.700;2024-03-17T07:34:07;15.20;66.30
63013;DHT22;62113;45.624;11.700;2024-03-17T07:36:32;15.10;66.50
63013;DHT22;62113;45.624;11.700;2024-03-17T07:38:58;15.10;67.10
63013;DHT22;62113;45.624;11.700;2024-03-17T07:41:24;15.10;67.40
63013;DHT22;62113;45.624;11.700;2024-03-17T07:43:50;15.00;67.60
63013;DHT22;62113;45.624;11.700;2024-03-17T07:46:15;14.90;67.70
63013;DHT22;62113;45.624;11.700;2024-03-17T07:48:42;14.80;68.00
63013;DHT22;62113;45.624;11.700;2024-03-17T07:51:10;14.90;68.20
63013;DHT22;62113;45.624;11.700;2024-03-17T07:53:37;14.90;68.60
63013;DHT22;62113;45.624;11.700;2024-03-17T07:56:11;14.90;68.60
63013;DHT22;62113;45.624;11.700;2024-03-17T07:58:44;15.00;68.70
63013;DHT22;62113;45.624;11.700;2024-03-17T08:01:12;14.90;69.80
63013;DHT22;62113;45.624;11.700;2024-03-17T08:03:40;15.00;70.30
63013;DHT22;62113;45.624;11.700;2024-03-17T08:06:07;15.10;69.30
63013;DHT22;62113;45.624;11.700;2024-03-17T08:08:33;15.20;68.90
63013;DHT22;62113;45.624;11.700;2024-03-17T08:11:00;15.40;69.10
63013;DHT22;62113;45.624;11.700;2024-03-17T08:13:29;15.50;68.30
63013;DHT22;62113;45.624;11.700;2024-03-17T08:16:03;15.60;67.90
63013;DHT22;62113;45.624;11.700;2024-03-17T08:18:31;15.80;67.50
63013;DHT22;62113;45.624;11.700;2024-03-17T08:20:57;15.90;67.40
63013;DHT22;62113;45.624;11.700;2024-03-17T08:23:23;16.10;67.30
63013;DHT22;62113;45.624;11.700;2024-03-17T08:25:59;16.20;66.70
63013;DHT22;62113;45.624;11.700;2024-03-17T08:28:25;16.30;66.40
63013;DHT22;62113;45.624;11.700;2024-03-17T08:30:56;16.40;66.30
63013;DHT22;62113;45.624;11.700;2024-03-17T08:33:22;16.50;66.10
63013;DHT22;62113;45.624;11.700;2024-03-17T08:38:21;16.70;65.70
63013;DHT22;62113;45.624;11.700;2024-03-17T08:40:51;16.70;65.60
63013;DHT22;62113;45.624;11.700;2024-03-17T08:43:18;16.90;65.70
63013;DHT22;62113;45.624;11.700;2024-03-17T08:45:44;17.10;65.40
63013;DHT22;62113;45.624;11.700;2024-03-17T08:48:10;17.20;65.10
63013;DHT22;62113;45.624;11.700;2024-03-17T08:50:36;17.30;64.90
63013;DHT22;62113;45.624;11.700;2024-03-17T08:53:02;17.50;64.30
63013;DHT22;62113;45.624;11.700;2024-03-17T08:55:27;17.70;63.90
63013;DHT22;62113;45.624;11.700;2024-03-17T08:57:53;18.00;63.90
63013;DHT22;62113;45.624;11.700;2024-03-17T09:00:19;18.20;62.80
63013;DHT22;62113;45.624;11.700;2024-03-17T09:02:44;18.70;63.40
63013;DHT22;62113;45.624;11.700;2024-03-17T09:05:10;19.20;61.90
63013;DHT22;62113;45.624;11.700;2024-03-17T09:07:38;19.70;61.10
63013;DHT22;62113;45.624;11.700;2024-03-17T09:10:04;20.20;59.50
63013;DHT22;62113;45.624;11.700;2024-03-17T09:12:30;20.40;57.00
63013;DHT22;62113;45.624;11.700;2024-03-17T09:14:55;20.60;55.60
63013;DHT22;62113;45.624;11.700;2024-03-17T09:17:21;20.60;55.40
63013;DHT22;62113;45.624;11.700;2024-03-17T09:19:46;20.70;55.20
63013;DHT22;62113;45.624;11.700;2024-03-17T09:22:13;20.80;55.60
63013;DHT22;62113;45.624;11.700;2024-03-17T09:24:39;20.80;54.60
63013;DHT22;62113;45.624;11.700;2024-03-17T09:27:04;20.90;54.80
63013;DHT22;62113;45.624;11.700;2024-03-17T09:29:30;20.90;53.20
63013;DHT22;62113;45.624;11.700;2024-03-17T09:31:56;20.80;53.00
63013;DHT22;62113;45.624;11.700;2024-03-17T09:34:22;20.80;53.30
63013;DHT22;62113;45.624;11.700;2024-03-17T09:36:47;20.80;54.20
63013;DHT22;62113;45.624;11.700;2024-03-17T09:39:13;20.90;54.50
63013;DHT22;62113;45.624;11.700;2024-03-17T09:41:40;21.00;54.30
63013;DHT22;62113;45.624;11.700;2024-03-17T09:44:10;21.10;54.80
63013;DHT22;62113;45.624;11.700;2024-03-17T09:46:36;21.20;54.80
63013;DHT22;62113;45.624;11.700;2024-03-17T09:49:02;21.30;54.30
63013;DHT22;62113;45.624;11.700;2024-03-17T09:51:28;21.30;53.80
63013;DHT22;62113;45.624;11.700;2024-03-17T09:53:53;21.30;53.00
63013;DHT22;62113;45.624;11.700;2024-03-17T09:56:20;21.30;52.90
63013;DHT22;62113;45.624;11.700;2024-03-17T09:58:47;21.20;52.70
63013;DHT22;62113;45.624;11.700;2024-03-17T10:01:13;21.30;53.00
63013;DHT22;62113;45.624;11.700;2024-03-17T10:06:07;21.30;52.90
63013;DHT22;62113;45.624;11.700;2024-03-17T10:08:32;21.30;53.20
63013;DHT22;62113;45.624;11.700;2024-03-17T10:10:59;21.40;53.50
63013;DHT22;62113;45.624;11.700;2024-03-17T10:13:25;21.40;53.30
63013;DHT22;62113;45.624;11.700;2024-03-17T10:15:51;21.50;53.50
63013;DHT22;62113;45.624;11.700;2024-03-17T10:18:23;21.60;53.70
63013;DHT22;62113;45.624;11.700;2024-03-17T10:20:49;21.70;53.70
63013;DHT22;62113;45.624;11.700;2024-03-17T10:23:20;21.70;53.40
63013;DHT22;62113;45.624;11.700;2024-03-17T10:25:46;21.70;53.60
63013;DHT22;62113;45.624;11.700;2024-03-17T10:28:12;21.70;53.50
63013;DHT22;62113;45.624;11.700;2024-03-17T10:30:39;21.80;53.50
63013;DHT22;62113;45.624;11.700;2024-03-17T10:33:06;21.80;53.10
63013;DHT22;62113;45.624;11.700;2024-03-17T10:35:38;21.70;52.50
63013;DHT22;62113;45.624;11.700;2024-03-17T10:38:09;21.60;52.80
63013;DHT22;62113;45.624;11.700;2024-03-17T10:40:37;21.50;52.60
63013;DHT22;62113;45.624;11.700;2024-03-17T10:43:04;21.40;52.40
63013;DHT22;62113;45.624;11.700;2024-03-17T10:45:32;21.40;52.80
63013;DHT22;62113;45.624;11.700;2024-03-17T10:48:03;21.40;53.20
63013;DHT22;62113;45.624;11.700;2024-03-17T10:50:31;21.50;53.40
63013;DHT22;62113;45.624;11.700;2024-03-17T10:53:02;21.50;53.40
63013;DHT22;62113;45.624;11.700;2024-03-17T10:55:31;21.60;53.40
63013;DHT22;62113;45.624;11.700;2024-03-17T10:58:03;21.40;52.50
63013;DHT22;62113;45.624;11.700;2024-03-17T11:00:29;21.40;52.50
63013;DHT22;62113;45.624;11.700;2024-03-17T11:02:57;21.30;52.80
63013;DHT22;62113;45.624;11.700;2024-03-17T11:05:27;21.20;53.00
63013;DHT22;62113;45.624;11.700;2024-03-17T11:07:57;21.30;53.40
63013;DHT22;62113;45.624;11.700;2024-03-17T11:10:32;21.30;52.90
63013;DHT22;62113;45.624;11.700;2024-03-17T11:12:59;21.20;52.90
63013;DHT22;62113;45.624;11.700;2024-03-17T11:20:33;20.70;54.80
63013;DHT22;62113;45.624;11.700;2024-03-17T11:23:00;20.50;54.30
63013;DHT22;62113;45.624;11.700;2024-03-17T11:27:54;20.30;55.20
63013;DHT22;62113;45.624;11.700;2024-03-17T11:39:05;20.30;56.20
63013;DHT22;62113;45.624;11.700;2024-03-17T11:46:57;20.30;56.30
63013;DHT22;62113;45.624;11.700;2024-03-17T11:49:30;20.30;56.20
63013;DHT22;62113;45.624;11.700;2024-03-17T11:51:57;20.40;56.50
63013;DHT22;62113;45.624;11.700;2024-03-17T11:54:26;20.50;56.90
63013;DHT22;62113;45.624;11.700;2024-03-17T11:56:56;20.50;56.80
63013;DHT22;62113;45.624;11.700;2024-03-17T11:59:25;20.50;55.90
63013;DHT22;62113;45.624;11.700;2024-03-17T12:01:51;20.50;56.00
63013;DHT22;62113;45.624;11.700;2024-03-17T12:04:18;20.60;56.30
63013;DHT22;62113;45.624;11.700;2024-03-17T12:06:52;20.70;56.10
63013;DHT22;62113;45.624;11.700;2024-03-17T12:09:30;20.80;56.00
63013;DHT22;62113;45.624;11.700;2024-03-17T12:12:01;20.80;55.80
63013;DHT22;62113;45.624;11.700;2024-03-17T12:14:27;20.90;55.50
63013;DHT22;62113;45.624;11.700;2024-03-17T12:16:55;21.00;55.60
63013;DHT22;62113;45.624;11.700;2024-03-17T12:19:22;20.90;55.40
63013;DHT22;62113;45.624;11.700;2024-03-17T12:21:58;20.90;56.10
63013;DHT22;62113;45.624;11.700;2024-03-17T12:24:26;21.00;55.70
63013;DHT22;62113;45.624;11.700;2024-03-17T12:26:54;21.00;55.40
63013;DHT22;62113;45.624;11.700;2024-03-17T12:29:32;21.10;55.70
63013;DHT22;62113;45.624;11.700;2024-03-17T12:32:00;21.10;55.00
63013;DHT22;62113;45.624;11.700;2024-03-17T12:34:29;21.10;54.90
63013;DHT22;62113;45.624;11.700;2024-03-17T12:36:56;21.20;54.60
63013;DHT22;62113;45.624;11.700;2024-03-17T12:39:27;21.40;53.70
63013;DHT22;62113;45.624;11.700;2024-03-17T12:44:39;21.20;54.70
63013;DHT22;62113;45.624;11.700;2024-03-17T12:47:16;21.20;54.70
63013;DHT22;62113;45.624;11.700;2024-03-17T12:52:28;21.20;54.70
63013;DHT22;62113;45.624;11.700;2024-03-17T12:55:04;21.20;54.60
63013;DHT22;62113;45.624;11.700;2024-03-17T12:58:04;21.20;54.50
63013;DHT22;62113;45.624;11.700;2024-03-17T13:01:03;21.30;54.50
63013;DHT22;62113;45.624;11.700;2024-03-17T13:03:36;21.40;54.40
63013;DHT22;62113;45.624;11.700;2024-03-17T13:06:06;21.30;54.20
63013;DHT22;62113;45.624;11.700;2024-03-17T13:08:35;21.30;55.50
63013;DHT22;62113;45.624;11.700;2024-03-17T13:11:01;21.20;55.30
63013;DHT22;62113;45.624;11.700;2024-03-17T13:13:29;21.20;55.30
63013;DHT22;62113;45.624;11.700;2024-03-17T13:15:55;21.20;55.40
63013;DHT22;62113;45.624;11.700;2024-03-17T13:18:21;21.20;55.00
63013;DHT22;62113;45.624;11.700;2024-03-17T13:20:47;21.20;54.30
63013;DHT22;62113;45.624;11.700;2024-03-17T13:23:15;21.20;54.80
63013;DHT22;62113;45.624;11.700;2024-03-17T13:25:41;21.20;55.60
63013;DHT22;62113;45.624;11.700;2024-03-17T13:28:09;21.20;55.30
63013;DHT22;62113;45.624;11.700;2024-03-17T13:30:35;21.20;54.30
63013;DHT22;62113;45.624;11.700;2024-03-17T13:33:05;21.20;54.30
63013;DHT22;62113;45.624;11.700;2024-03-17T13:35:34;21.20;54.90
63013;DHT22;62113;45.624;11.700;2024-03-17T13:38:03;21.20;54.40
63013;DHT22;62113;45.624;11.700;2024-03-17T13:40:29;21.20;54.40
63013;DHT22;62113;45.624;11.700;2024-03-17T13:42:56;21.30;54.40
63013;DHT22;62113;45.624;11.700;2024-03-17T13:45:24;21.30;54.30
63013;DHT22;62113;45.624;11.700;2024-03-17T13:47:54;21.40;54.00
63013;DHT22;62113;45.624;11.700;2024-03-17T13:50:21;21.30;54.10
63013;DHT22;62113;45.624;11.700;2024-03-17T13:52:47;21.30;54.10
63013;DHT22;62113;45.624;11.700;2024-03-17T13:55:15;21.30;53.90
63013;DHT22;62113;45.624;11.700;2024-03-17T13:57:52;21.30;53.80
63013;DHT22;62113;45.624;11.700;2024-03-17T14:00:20;21.30;54.00
63013;DHT22;62113;45.624;11.700;2024-03-17T14:02:47;21.30;54.20
63013;DHT22;62113;45.624;11.700;2024-03-17T14:05:20;21.30;53.70
63013;DHT22;62113;45.624;11.700;2024-03-17T14:07:47;21.20;53.90
63013;DHT22;62113;45.624;11.700;2024-03-17T14:10:18;21.20;53.80
63013;DHT22;62113;45.624;11.700;2024-03-17T14:12:44;21.20;53.90
63013;DHT22;62113;45.624;11.700;2024-03-17T14:15:11;21.20;53.90
63013;DHT22;62113;45.624;11.700;2024-03-17T14:17:38;21.20;54.30
63013;DHT22;62113;45.624;11.700;2024-03-17T14:20:04;21.10;53.90
63013;DHT22;62113;45.624;11.700;2024-03-17T14:22:31;21.10;53.80
63013;DHT22;62113;45.624;11.700;2024-03-17T14:24:57;21.00;54.50
63013;DHT22;62113;45.624;11.700;2024-03-17T14:27:23;20.90;54.60
63013;DHT22;62113;45.624;11.700;2024-03-17T14:29:49;20.90;54.50
63013;DHT22;62113;45.624;11.700;2024-03-17T14:32:15;20.90;54.60
63013;DHT22;62113;45.624;11.700;2024-03-17T14:34:41;20.80;54.60
63013;DHT22;62113;45.624;11.700;2024-03-17T14:37:06;20.80;54.80
63013;DHT22;62113;45.624;11.700;2024-03-17T14:39:32;20.80;55.10
63013;DHT22;62113;45.624;11.700;2024-03-17T14:41:58;20.70;55.40
63013;DHT22;62113;45.624;11.700;2024-03-17T14:44:24;20.70;55.80
63013;DHT22;62113;45.624;11.700;2024-03-17T14:46:50;20.70;55.70
63013;DHT22;62113;45.624;11.700;2024-03-17T14:49:20;20.70;55.90
63013;DHT22;62113;45.624;11.700;2024-03-17T14:51:46;20.70;56.00
63013;DHT22;62113;45.624;11.700;2024-03-17T14:54:11;20.70;55.90
63013;DHT22;62113;45.624;11.700;2024-03-17T14:56:38;20.70;55.90
63013;DHT22;62113;45.624;11.700;2024-03-17T14:59:05;20.70;56.00
63013;DHT22;62113;45.624;11.700;2024-03-17T15:01:31;20.80;56.10
63013;DHT22;62113;45.624;11.700;2024-03-17T15:03:56;20.70;56.10
63013;DHT22;62113;45.624;11.700;2024-03-17T15:06:22;20.70;56.10
63013;DHT22;62113;45.624;11.700;2024-03-17T15:08:48;20.70;56.30
63013;DHT22;62113;45.624;11.700;2024-03-17T15:11:13;20.60;56.90
63013;DHT22;62113;45.624;11.700;2024-03-17T15:13:39;20.60;56.90
63013;DHT22;62113;45.624;11.700;2024-03-17T15:16:08;20.60;57.00
63013;DHT22;62113;45.624;11.700;2024-03-17T15:18:33;20.50;57.20
63013;DHT22;62113;45.624;11.700;2024-03-17T15:21:00;20.60;57.10
63013;DHT22;62113;45.624;11.700;2024-03-17T15:23:29;20.50;57.20
63013;DHT22;62113;45.624;11.700;2024-03-17T15:26:05;20.50;57.40
63013;DHT22;62113;45.624;11.700;2024-03-17T15:28:39;20.50;57.70
63013;DHT22;62113;45.624;11.700;2024-03-17T15:31:06;20.50;58.10
63013;DHT22;62113;45.624;11.700;2024-03-17T15:33:32;20.40;58.40
63013;DHT22;62113;45.624;11.700;2024-03-17T15:36:01;20.40;58.20
63013;DHT22;62113;45.624;11.700;2024-03-17T15:38:32;20.40;58.70
63013;DHT22;62113;45.624;11.700;2024-03-17T15:40:59;20.30;58.80
63013;DHT22;62113;45.624;11.700;2024-03-17T15:43:25;20.30;59.00
63013;DHT22;62113;45.624;11.700;2024-03-17T15:45:52;20.30;59.30
63013;DHT22;62113;45.624;11.700;2024-03-17T15:48:18;20.30;59.50